Observation data for Saint Lawrence on 01/19/2019      Previous  Date  Next       Current Mesonet Observations  Soil Data  Daily Summary Page  Observations in Plain Language
KST1 190600Z 32031G39KT 08/01 A3003 RMK A01 T00770010  RH  064%=      5-min Rain = 0
KST1 190605Z 32031G36KT 08/01 A3003 RMK A01 T00760010  RH  064%=      5-min Rain = 0
KST1 190610Z 33030G38KT 08/01 A3003 RMK A01 T00750009  RH  064%=      5-min Rain = 0
KST1 190615Z 33028G36KT 07/01 A3004 RMK A01 T00730008  RH  064%=      5-min Rain = 0
KST1 190620Z 33027G36KT 07/01 A3004 RMK A01 T00720007  RH  064%=      5-min Rain = 0
KST1 190625Z 33027G35KT 07/01 A3004 RMK A01 T00720006  RH  064%=      5-min Rain = 0
KST1 190630Z 33028G34KT 07/01 A3004 RMK A01 T00720005  RH  063%=      5-min Rain = 0
KST1 190635Z 33028G34KT 07/01 A3004 RMK A01 T00720005  RH  063%=      5-min Rain = 0
KST1 190640Z 34026G34KT 07/00 A3005 RMK A01 T00710004  RH  063%=      5-min Rain = 0
KST1 190645Z 35022G28KT 06/M00 A3006 RMK A01 T00641004  RH  063%=      5-min Rain = 0
KST1 190650Z 34025G32KT 06/M01 A3006 RMK A01 T00611007  RH  062%=      5-min Rain = 0
KST1 190655Z 34024G34KT 06/M01 A3006 RMK A01 T00601006  RH  063%=      5-min Rain = 0
KST1 190700Z 33031G38KT 06/M00 A3006 RMK A01 T00601003  RH  065%=      5-min Rain = 0
KST1 190705Z 34032G39KT 06/M01 A3006 RMK A01 T00581005  RH  064%=      5-min Rain = 0
KST1 190710Z 33033G41KT 06/M01 A3006 RMK A01 T00561009  RH  064%=      5-min Rain = 0
KST1 190715Z 33030G37KT 05/M02 A3006 RMK A01 T00541015  RH  062%=      5-min Rain = 0
KST1 190720Z 33033G41KT 05/M02 A3006 RMK A01 T00521021  RH  060%=      5-min Rain = 0
KST1 190725Z 33034G41KT 05/M02 A3006 RMK A01 T00501023  RH  060%=      5-min Rain = 0
KST1 190730Z 33030G37KT 05/M02 A3007 RMK A01 T00491023  RH  060%=      5-min Rain = 0
KST1 190735Z 33029G34KT 05/M02 A3007 RMK A01 T00471023  RH  061%=      5-min Rain = 0
KST1 190740Z 33027KT 05/M02 A3008 RMK A01 T00461023  RH  061%=      5-min Rain = 0
KST1 190745Z 33028G36KT 05/M02 A3008 RMK A01 T00451022  RH  062%=      5-min Rain = 0
KST1 190750Z 34027G32KT 04/M02 A3008 RMK A01 T00441021  RH  063%=      5-min Rain = 0
KST1 190755Z 33028G38KT 04/M02 A3009 RMK A01 T00441020  RH  064%=      5-min Rain = 0
KST1 190800Z 33028G36KT 04/M02 A3009 RMK A01 T00431018  RH  065%=      5-min Rain = 0
KST1 190805Z 33026G35KT 04/M02 A301 RMK A01 T00431017  RH  066%=      5-min Rain = 0
KST1 190810Z 33025G32KT 04/M02 A301 RMK A01 T00421016  RH  067%=      5-min Rain = 0
KST1 190815Z 33027G34KT 04/M02 A301 RMK A01 T00421015  RH  067%=      5-min Rain = 0
KST1 190820Z 33026G33KT 04/M01 A3011 RMK A01 T00421014  RH  067%=      5-min Rain = 0
KST1 190825Z 33024G29KT 04/M01 A3011 RMK A01 T00411014  RH  068%=      5-min Rain = 0
KST1 190830Z 33025G32KT 04/M01 A3011 RMK A01 T00411014  RH  068%=      5-min Rain = 0
KST1 190835Z 33024G29KT 04/M01 A3012 RMK A01 T00411014  RH  068%=      5-min Rain = 0
KST1 190840Z 33023G31KT 04/M01 A3012 RMK A01 T00401013  RH  069%=      5-min Rain = 0
KST1 190845Z 33024KT 04/M01 A3012 RMK A01 T00401012  RH  069%=      5-min Rain = 0
KST1 190850Z 33022G27KT 04/M01 A3013 RMK A01 T00391012  RH  070%=      5-min Rain = 0
KST1 190855Z 33021G29KT 04/M01 A3013 RMK A01 T00391012  RH  070%=      5-min Rain = 0
KST1 190900Z 33021KT 04/M01 A3013 RMK A01 T00381012  RH  071%=      5-min Rain = 0
KST1 190905Z 33019G24KT 04/M01 A3014 RMK A01 T00381012  RH  071%=      5-min Rain = 0
KST1 190910Z 33018KT 04/M01 A3014 RMK A01 T00371012  RH  071%=      5-min Rain = 0
KST1 190915Z 32019G24KT 04/M01 A3014 RMK A01 T00371012  RH  071%=      5-min Rain = 0
KST1 190920Z 32021G27KT 04/M01 A3014 RMK A01 T00371012  RH  071%=      5-min Rain = 0
KST1 190925Z 33021G27KT 04/M01 A3014 RMK A01 T00371013  RH  071%=      5-min Rain = 0
KST1 190930Z 32020KT 04/M01 A3015 RMK A01 T00371013  RH  071%=      5-min Rain = 0
KST1 190935Z 32019KT 04/M01 A3015 RMK A01 T00361012  RH  072%=      5-min Rain = 0
KST1 190940Z 32018KT 04/M01 A3015 RMK A01 T00351012  RH  072%=      5-min Rain = 0
KST1 190945Z 33021G26KT 04/M01 A3015 RMK A01 T00361012  RH  072%=      5-min Rain = 0
KST1 190950Z 33021G26KT 04/M01 A3015 RMK A01 T00371014  RH  070%=      5-min Rain = 0
KST1 190955Z 33019G27KT 04/M02 A3016 RMK A01 T00361015  RH  070%=      5-min Rain = 0
KST1 191000Z 33017G22KT 04/M02 A3016 RMK A01 T00351016  RH  070%=      5-min Rain = 0
KST1 191005Z 32016KT 03/M02 A3017 RMK A01 T00331016  RH  071%=      5-min Rain = 0
KST1 191010Z 32019G26KT 03/M02 A3017 RMK A01 T00331015  RH  071%=      5-min Rain = 0
KST1 191015Z 33021G26KT 03/M02 A3017 RMK A01 T00341018  RH  069%=      5-min Rain = 0
KST1 191020Z 33022G28KT 03/M02 A3017 RMK A01 T00341024  RH  067%=      5-min Rain = 0
KST1 191025Z 34022G29KT 03/M03 A3017 RMK A01 T00331028  RH  065%=      5-min Rain = 0
KST1 191030Z 34021KT 03/M03 A3017 RMK A01 T00331030  RH  064%=      5-min Rain = 0
KST1 191035Z 33017KT 03/M03 A3018 RMK A01 T00311029  RH  065%=      5-min Rain = 0
KST1 191040Z 33015KT 03/M03 A3018 RMK A01 T00291029  RH  067%=      5-min Rain = 0
KST1 191045Z 33014KT 03/M03 A3018 RMK A01 T00281028  RH  067%=      5-min Rain = 0
KST1 191050Z 32014KT 03/M03 A3018 RMK A01 T00271028  RH  068%=      5-min Rain = 0
KST1 191055Z 32015KT 03/M03 A3018 RMK A01 T00271025  RH  069%=      5-min Rain = 0
KST1 191100Z 32017G23KT 03/M03 A3018 RMK A01 T00291025  RH  069%=      5-min Rain = 0
KST1 191105Z 32017G22KT 03/M03 A3018 RMK A01 T00281026  RH  068%=      5-min Rain = 0
KST1 191110Z 32020G25KT 03/M03 A3018 RMK A01 T00281026  RH  068%=      5-min Rain = 0
KST1 191115Z 33020KT 03/M03 A3018 RMK A01 T00291028  RH  067%=      5-min Rain = 0
KST1 191120Z 33018G24KT 03/M03 A3018 RMK A01 T00271029  RH  067%=      5-min Rain = 0
KST1 191125Z 33021KT 03/M03 A3019 RMK A01 T00281030  RH  067%=      5-min Rain = 0
KST1 191130Z 33019G24KT 03/M03 A3019 RMK A01 T00271030  RH  067%=      5-min Rain = 0
KST1 191135Z 33019KT 03/M03 A3019 RMK A01 T00271031  RH  067%=      5-min Rain = 0
KST1 191140Z 33019G25KT 03/M03 A3019 RMK A01 T00261031  RH  067%=      5-min Rain = 0
KST1 191145Z 33020KT 03/M03 A3019 RMK A01 T00271032  RH  066%=      5-min Rain = 0
KST1 191150Z 33019G24KT 03/M03 A3019 RMK A01 T00261032  RH  066%=      5-min Rain = 0
KST1 191155Z 32019G25KT 03/M03 A3019 RMK A01 T00261032  RH  066%=      5-min Rain = 0
KST1 191200Z 32019KT 03/M03 A302 RMK A01 T00251032  RH  066%=      5-min Rain = 0
KST1 191205Z 33019KT 03/M03 A302 RMK A01 T00261033  RH  066%=      5-min Rain = 0
KST1 191210Z 33018G23KT 03/M03 A302 RMK A01 T00251033  RH  066%=      5-min Rain = 0
KST1 191215Z 33018KT 03/M03 A302 RMK A01 T00251034  RH  066%=      5-min Rain = 0
KST1 191220Z 33017KT 03/M03 A3021 RMK A01 T00251034  RH  066%=      5-min Rain = 0
KST1 191225Z 33015KT 02/M03 A3021 RMK A01 T00231034  RH  067%=      5-min Rain = 0
KST1 191230Z 33015G20KT 02/M03 A3021 RMK A01 T00221033  RH  067%=      5-min Rain = 0
KST1 191235Z 33016KT 02/M03 A3022 RMK A01 T00221033  RH  067%=      5-min Rain = 0
KST1 191240Z 33018KT 02/M03 A3022 RMK A01 T00231034  RH  067%=      5-min Rain = 0
KST1 191245Z 33018G23KT 02/M04 A3023 RMK A01 T00241035  RH  066%=      5-min Rain = 0
KST1 191250Z 33017G22KT 02/M04 A3024 RMK A01 T00241035  RH  066%=      5-min Rain = 0
KST1 191255Z 33017KT 02/M04 A3024 RMK A01 T00231035  RH  066%=      5-min Rain = 0
KST1 191300Z 33016G21KT 02/M03 A3025 RMK A01 T00241034  RH  066%=      5-min Rain = 0
KST1 191305Z 34015G20KT 02/M04 A3025 RMK A01 T00231035  RH  066%=      5-min Rain = 0
KST1 191310Z 33013KT 02/M04 A3026 RMK A01 T00221035  RH  067%=      5-min Rain = 0
KST1 191315Z 33012KT 02/M04 A3026 RMK A01 T00191035  RH  068%=      5-min Rain = 0
KST1 191320Z 33011KT 02/M04 A3026 RMK A01 T00191035  RH  069%=      5-min Rain = 0
KST1 191325Z 33012KT 02/M04 A3027 RMK A01 T00181035  RH  069%=      5-min Rain = 0
KST1 191330Z 32012KT 02/M04 A3027 RMK A01 T00181035  RH  069%=      5-min Rain = 0
KST1 191335Z 32012KT 02/M04 A3027 RMK A01 T00181035  RH  069%=      5-min Rain = 0
KST1 191340Z 32012KT 02/M04 A3028 RMK A01 T00171035  RH  069%=      5-min Rain = 0
KST1 191345Z 33012KT 02/M04 A3028 RMK A01 T00171035  RH  069%=      5-min Rain = 0
KST1 191350Z 33013G18KT 02/M04 A3028 RMK A01 T00191035  RH  068%=      5-min Rain = 0
KST1 191355Z 33013KT 02/M04 A3028 RMK A01 T00191035  RH  068%=      5-min Rain = 0
KST1 191400Z 33013KT 02/M04 A3029 RMK A01 T00191035  RH  068%=      5-min Rain = 0
KST1 191405Z 33012KT 02/M03 A3029 RMK A01 T00201034  RH  068%=      5-min Rain = 0
KST1 191410Z 33013KT 02/M03 A3029 RMK A01 T00221033  RH  068%=      5-min Rain = 0
KST1 191415Z 33013KT 02/M03 A303 RMK A01 T00221033  RH  068%=      5-min Rain = 0
KST1 191420Z 32013KT 02/M03 A303 RMK A01 T00241032  RH  068%=      5-min Rain = 0
KST1 191425Z 32013KT 03/M03 A303 RMK A01 T00251030  RH  068%=      5-min Rain = 0
KST1 191430Z 32013KT 03/M03 A303 RMK A01 T00271030  RH  067%=      5-min Rain = 0
KST1 191435Z 32012KT 03/M03 A303 RMK A01 T00281029  RH  067%=      5-min Rain = 0
KST1 191440Z 32012KT 03/M03 A303 RMK A01 T00301028  RH  066%=      5-min Rain = 0
KST1 191445Z 32012KT 03/M03 A3031 RMK A01 T00321027  RH  066%=      5-min Rain = 0
KST1 191450Z 32013KT 03/M03 A3031 RMK A01 T00331026  RH  066%=      5-min Rain = 0
KST1 191455Z 32012KT 04/M03 A3031 RMK A01 T00351026  RH  065%=      5-min Rain = 0
KST1 191500Z 32013KT 04/M03 A3031 RMK A01 T00371025  RH  064%=      5-min Rain = 0
KST1 191505Z 32013KT 04/M02 A3031 RMK A01 T00391024  RH  064%=      5-min Rain = 0
KST1 191510Z 32013KT 04/M02 A3031 RMK A01 T00401024  RH  063%=      5-min Rain = 0
KST1 191515Z 31014KT 04/M02 A3032 RMK A01 T00431023  RH  063%=      5-min Rain = 0
KST1 191520Z 32013KT 05/M02 A3032 RMK A01 T00461021  RH  062%=      5-min Rain = 0
KST1 191525Z 31015KT 05/M02 A3033 RMK A01 T00471023  RH  061%=      5-min Rain = 0
KST1 191530Z 31014KT 05/M02 A3033 RMK A01 T00501022  RH  060%=      5-min Rain = 0
KST1 191535Z 31013KT 05/M02 A3033 RMK A01 T00531022  RH  059%=      5-min Rain = 0
KST1 191540Z 32013KT 06/M02 A3033 RMK A01 T00551022  RH  058%=      5-min Rain = 0
KST1 191545Z 32015KT 06/M02 A3033 RMK A01 T00571023  RH  057%=      5-min Rain = 0
KST1 191550Z 32016KT 06/M02 A3033 RMK A01 T00591023  RH  056%=      5-min Rain = 0
KST1 191555Z 33015G20KT 06/M02 A3033 RMK A01 T00611024  RH  055%=      5-min Rain = 0
KST1 191600Z 33018G23KT 06/M03 A3034 RMK A01 T00641026  RH  053%=      5-min Rain = 0
KST1 191605Z 33019KT 07/M03 A3034 RMK A01 T00651027  RH  052%=      5-min Rain = 0
KST1 191610Z 33020KT 07/M03 A3034 RMK A01 T00681027  RH  051%=      5-min Rain = 0
KST1 191615Z 34019G24KT 07/M03 A3034 RMK A01 T00691029  RH  050%=      5-min Rain = 0
KST1 191620Z 34019KT 07/M03 A3034 RMK A01 T00701031  RH  049%=      5-min Rain = 0
KST1 191625Z 34018G23KT 07/M03 A3034 RMK A01 T00731029  RH  049%=      5-min Rain = 0
KST1 191630Z 34018G26KT 08/M03 A3034 RMK A01 T00751031  RH  048%=      5-min Rain = 0
KST1 191635Z 34021G26KT 07/M03 A3034 RMK A01 T00731033  RH  047%=      5-min Rain = 0
KST1 191640Z 34019G27KT 07/M03 A3035 RMK A01 T00731033  RH  047%=      5-min Rain = 0
KST1 191645Z 34019G24KT 08/M03 A3035 RMK A01 T00761032  RH  047%=      5-min Rain = 0
KST1 191650Z 34020KT 08/M04 A3035 RMK A01 T00771035  RH  046%=      5-min Rain = 0
KST1 191655Z 34017KT 08/M03 A3035 RMK A01 T00801034  RH  045%=      5-min Rain = 0
KST1 191700Z 35017KT 08/M03 A3035 RMK A01 T00821034  RH  044%=      5-min Rain = 0
KST1 191705Z 34018KT 08/M04 A3035 RMK A01 T00831037  RH  043%=      5-min Rain = 0
KST1 191710Z 33015KT 09/M03 A3035 RMK A01 T00871031  RH  044%=      5-min Rain = 0
KST1 191715Z 34017G22KT 09/M03 A3035 RMK A01 T00871034  RH  043%=      5-min Rain = 0
KST1 191720Z 33017KT 09/M03 A3035 RMK A01 T00881032  RH  043%=      5-min Rain = 0
KST1 191725Z 33015KT 09/M03 A3036 RMK A01 T00881031  RH  043%=      5-min Rain = 0
KST1 191730Z 33016G21KT 09/M03 A3036 RMK A01 T00901031  RH  043%=      5-min Rain = 0
KST1 191735Z 33018KT 09/M03 A3035 RMK A01 T00941034  RH  041%=      5-min Rain = 0
KST1 191740Z 34017G22KT 09/M04 A3036 RMK A01 T00931037  RH  040%=      5-min Rain = 0
KST1 191745Z 34016G21KT 09/M04 A3035 RMK A01 T00921037  RH  041%=      5-min Rain = 0
KST1 191750Z 33017KT 10/M04 A3035 RMK A01 T00951035  RH  040%=      5-min Rain = 0
KST1 191755Z 33016G23KT 10/M04 A3035 RMK A01 T00971035  RH  040%=      5-min Rain = 0
KST1 191800Z 34018G24KT 10/M04 A3035 RMK A01 T00981036  RH  039%=      5-min Rain = 0
KST1 191805Z 34016G21KT 10/M04 A3035 RMK A01 T00971036  RH  040%=      5-min Rain = 0
KST1 191810Z 35016G21KT 10/M04 A3035 RMK A01 T00981035  RH  039%=      5-min Rain = 0
KST1 191815Z 33015G21KT 10/M03 A3034 RMK A01 T01031032  RH  039%=      5-min Rain = 0
KST1 191820Z 33016G21KT 10/M03 A3034 RMK A01 T01001034  RH  039%=      5-min Rain = 0
KST1 191825Z 34014KT 11/M03 A3034 RMK A01 T01061032  RH  038%=      5-min Rain = 0
KST1 191830Z 33015G22KT 11/M03 A3034 RMK A01 T01071033  RH  038%=      5-min Rain = 0
KST1 191835Z 34016KT 11/M04 A3033 RMK A01 T01061035  RH  038%=      5-min Rain = 0
KST1 191840Z 33015G21KT 11/M03 A3033 RMK A01 T01091034  RH  037%=      5-min Rain = 0
KST1 191845Z 34019KT 11/M04 A3033 RMK A01 T01091037  RH  036%=      5-min Rain = 0
KST1 191850Z 34017G25KT 11/M04 A3033 RMK A01 T01091037  RH  036%=      5-min Rain = 0
KST1 191855Z 34020KT 11/M04 A3032 RMK A01 T01121039  RH  035%=      5-min Rain = 0
KST1 191900Z 34017G22KT 11/M04 A3032 RMK A01 T01101038  RH  036%=      5-min Rain = 0
KST1 191905Z 34018G23KT 11/M04 A3032 RMK A01 T01141038  RH  035%=      5-min Rain = 0
KST1 191910Z 33017G22KT 12/M04 A3031 RMK A01 T01151036  RH  035%=      5-min Rain = 0
KST1 191915Z 34019KT 11/M04 A3031 RMK A01 T01141037  RH  035%=      5-min Rain = 0
KST1 191920Z 35017KT 12/M04 A3031 RMK A01 T01161036  RH  035%=      5-min Rain = 0
KST1 191925Z 35020G25KT 12/M04 A303 RMK A01 T01181036  RH  034%=      5-min Rain = 0
KST1 191930Z 34017KT 12/M04 A303 RMK A01 T01161037  RH  034%=      5-min Rain = 0
KST1 191935Z 33019G25KT 12/M04 A303 RMK A01 T01191038  RH  034%=      5-min Rain = 0
KST1 191940Z 33017G24KT 12/M04 A3029 RMK A01 T01181036  RH  034%=      5-min Rain = 0
KST1 191945Z 34018G23KT 12/M04 A3029 RMK A01 T01191037  RH  034%=      5-min Rain = 0
KST1 191950Z 33017G24KT 12/M04 A3029 RMK A01 T01211037  RH  033%=      5-min Rain = 0
KST1 191955Z 33018G23KT 12/M04 A3029 RMK A01 T01221037  RH  033%=      5-min Rain = 0
KST1 192000Z 33015G23KT 12/M04 A3029 RMK A01 T01241036  RH  033%=      5-min Rain = 0
KST1 192005Z 33016G23KT 12/M04 A3028 RMK A01 T01241037  RH  033%=      5-min Rain = 0
KST1 192010Z 32016G22KT 13/M04 A3028 RMK A01 T01261036  RH  032%=      5-min Rain = 0
KST1 192015Z 33018G27KT 13/M04 A3028 RMK A01 T01271037  RH  032%=      5-min Rain = 0
KST1 192020Z 33017KT 13/M04 A3027 RMK A01 T01251038  RH  032%=      5-min Rain = 0
KST1 192025Z 33018KT 13/M04 A3027 RMK A01 T01271038  RH  032%=      5-min Rain = 0
KST1 192030Z 33016G21KT 13/M04 A3027 RMK A01 T01301036  RH  032%=      5-min Rain = 0
KST1 192035Z 34018G24KT 13/M04 A3027 RMK A01 T01301037  RH  031%=      5-min Rain = 0
KST1 192040Z 34017KT 13/M04 A3027 RMK A01 T01311038  RH  031%=      5-min Rain = 0
KST1 192045Z 33016KT 13/M04 A3027 RMK A01 T01301039  RH  031%=      5-min Rain = 0
KST1 192050Z 32015G20KT 13/M04 A3027 RMK A01 T01321037  RH  031%=      5-min Rain = 0
KST1 192055Z 34016G21KT 13/M04 A3027 RMK A01 T01341038  RH  030%=      5-min Rain = 0
KST1 192100Z 33018G25KT 13/M04 A3027 RMK A01 T01331039  RH  030%=      5-min Rain = 0
KST1 192105Z 32017G22KT 14/M04 A3027 RMK A01 T01351039  RH  030%=      5-min Rain = 0
KST1 192110Z 31016KT 13/M04 A3027 RMK A01 T01331041  RH  030%=      5-min Rain = 0
KST1 192115Z 33017KT 13/M04 A3027 RMK A01 T01341041  RH  030%=      5-min Rain = 0
KST1 192120Z 33013KT 13/M04 A3027 RMK A01 T01311040  RH  031%=      5-min Rain = 0
KST1 192125Z 32014G20KT 14/M04 A3026 RMK A01 T01361039  RH  030%=      5-min Rain = 0
KST1 192130Z 32014G19KT 14/M04 A3026 RMK A01 T01381040  RH  029%=      5-min Rain = 0
KST1 192135Z 33013G18KT 13/M04 A3026 RMK A01 T01331041  RH  030%=      5-min Rain = 0
KST1 192140Z 31017G22KT 14/M04 A3026 RMK A01 T01351042  RH  029%=      5-min Rain = 0
KST1 192145Z 33016G21KT 14/M04 A3026 RMK A01 T01361041  RH  029%=      5-min Rain = 0
KST1 192150Z 31015KT 13/M04 A3026 RMK A01 T01341041  RH  030%=      5-min Rain = 0
KST1 192155Z 33015KT 14/M04 A3026 RMK A01 T01371041  RH  029%=      5-min Rain = 0
KST1 192200Z 32015G20KT 14/M04 A3026 RMK A01 T01371044  RH  029%=      5-min Rain = 0
KST1 192205Z 32013KT 14/M04 A3026 RMK A01 T01361042  RH  029%=      5-min Rain = 0
KST1 192210Z 34014KT 14/M04 A3026 RMK A01 T01371041  RH  029%=      5-min Rain = 0
KST1 192215Z 33015G20KT 14/M04 A3026 RMK A01 T01381043  RH  029%=      5-min Rain = 0
KST1 192220Z 33014G19KT 14/M04 A3026 RMK A01 T01371042  RH  029%=      5-min Rain = 0
KST1 192225Z 32016G21KT 14/M05 A3026 RMK A01 T01381045  RH  028%=      5-min Rain = 0
KST1 192230Z 32013KT 14/M05 A3026 RMK A01 T01371046  RH  028%=      5-min Rain = 0
KST1 192235Z 33012KT 14/M05 A3026 RMK A01 T01371045  RH  028%=      5-min Rain = 0
KST1 192240Z 32017KT 14/M05 A3026 RMK A01 T01371048  RH  028%=      5-min Rain = 0
KST1 192245Z 32016KT 14/M05 A3026 RMK A01 T01351049  RH  028%=      5-min Rain = 0
KST1 192250Z 32013KT 14/M05 A3026 RMK A01 T01351048  RH  028%=      5-min Rain = 0
KST1 192255Z 33013KT 14/M05 A3026 RMK A01 T01351047  RH  028%=      5-min Rain = 0
KST1 192300Z 33014KT 13/M05 A3026 RMK A01 T01341047  RH  029%=      5-min Rain = 0
KST1 192305Z 34014KT 13/M05 A3026 RMK A01 T01341046  RH  029%=      5-min Rain = 0
KST1 192310Z 32012KT 13/M05 A3026 RMK A01 T01331046  RH  029%=      5-min Rain = 0
KST1 192315Z 33012KT 13/M05 A3026 RMK A01 T01331046  RH  029%=      5-min Rain = 0
KST1 192320Z 33012KT 13/M05 A3026 RMK A01 T01321046  RH  029%=      5-min Rain = 0
KST1 192325Z 33011KT 13/M05 A3026 RMK A01 T01311047  RH  029%=      5-min Rain = 0
KST1 192330Z 33010KT 13/M05 A3026 RMK A01 T01301047  RH  029%=      5-min Rain = 0
KST1 192335Z 33009KT 13/M05 A3026 RMK A01 T01281045  RH  030%=      5-min Rain = 0
KST1 192340Z 33010KT 13/M05 A3026 RMK A01 T01271045  RH  030%=      5-min Rain = 0
KST1 192345Z 33010KT 13/M05 A3026 RMK A01 T01251045  RH  031%=      5-min Rain = 0
KST1 192350Z 33008KT 12/M04 A3026 RMK A01 T01211044  RH  031%=      5-min Rain = 0
KST1 192355Z 33008KT 12/M05 A3026 RMK A01 T01181045  RH  032%=      5-min Rain = 0
KST1 200000Z 34007KT 11/M05 A3026 RMK A01 T01121045  RH  033%=      5-min Rain = 0
KST1 200005Z 33007KT 11/M05 A3026 RMK A01 T01071046  RH  034%=      5-min Rain = 0
KST1 200010Z 33006KT 10/M05 A3026 RMK A01 T01021047  RH  035%=      5-min Rain = 0
KST1 200015Z 34006KT 10/M05 A3026 RMK A01 T00951048  RH  037%=      5-min Rain = 0
KST1 200020Z 35005KT 09/M05 A3026 RMK A01 T00931045  RH  038%=      5-min Rain = 0
KST1 200025Z 33006KT 09/M05 A3026 RMK A01 T00941045  RH  038%=      5-min Rain = 0
KST1 200030Z 35006KT 09/M05 A3026 RMK A01 T00891046  RH  039%=      5-min Rain = 0
KST1 200035Z 35005KT 09/M05 A3026 RMK A01 T00851047  RH  040%=      5-min Rain = 0
KST1 200040Z 35004KT 08/M05 A3026 RMK A01 T00811049  RH  040%=      5-min Rain = 0
KST1 200045Z 31006KT 08/M05 A3026 RMK A01 T00811048  RH  040%=      5-min Rain = 0
KST1 200050Z 32006KT 08/M05 A3027 RMK A01 T00821047  RH  040%=      5-min Rain = 0
KST1 200055Z 35005KT 08/M05 A3027 RMK A01 T00781047  RH  041%=      5-min Rain = 0
KST1 200100Z 00005KT 08/M05 A3027 RMK A01 T00771047  RH  042%=      5-min Rain = 0
KST1 200105Z 00004KT 07/M05 A3027 RMK A01 T00731046  RH  043%=      5-min Rain = 0
KST1 200110Z 01004KT 07/M04 A3027 RMK A01 T00731044  RH  044%=      5-min Rain = 0
KST1 200115Z 02004KT 07/M04 A3027 RMK A01 T00741044  RH  043%=      5-min Rain = 0
KST1 200120Z 02003KT 07/M04 A3027 RMK A01 T00741043  RH  044%=      5-min Rain = 0
KST1 200125Z 02003KT 08/M04 A3027 RMK A01 T00771043  RH  043%=      5-min Rain = 0
KST1 200130Z 02003KT 07/M04 A3027 RMK A01 T00721044  RH  044%=      5-min Rain = 0
KST1 200135Z 03004KT 07/M04 A3027 RMK A01 T00711043  RH  045%=      5-min Rain = 0
KST1 200140Z 03004KT 07/M04 A3027 RMK A01 T00731043  RH  044%=      5-min Rain = 0
KST1 200145Z 03004KT 07/M04 A3028 RMK A01 T00721043  RH  044%=      5-min Rain = 0
KST1 200150Z 04004KT 07/M04 A3028 RMK A01 T00701043  RH  045%=      5-min Rain = 0
KST1 200155Z 04004KT 07/M04 A3028 RMK A01 T00731042  RH  044%=      5-min Rain = 0
KST1 200200Z 03004KT 08/M04 A3028 RMK A01 T00821041  RH  042%=      5-min Rain = 0
KST1 200205Z 04005KT 09/M04 A3028 RMK A01 T00861041  RH  041%=      5-min Rain = 0
KST1 200210Z 05005KT 08/M05 A3029 RMK A01 T00811045  RH  041%=      5-min Rain = 0
KST1 200215Z 05004KT 07/M04 A3029 RMK A01 T00711044  RH  044%=      5-min Rain = 0
KST1 200220Z 05004KT 07/M04 A3029 RMK A01 T00701042  RH  045%=      5-min Rain = 0
KST1 200225Z 05004KT 07/M04 A3029 RMK A01 T00711040  RH  046%=      5-min Rain = 0
KST1 200230Z 05004KT 07/M04 A3029 RMK A01 T00691041  RH  046%=      5-min Rain = 0
KST1 200235Z 05005KT 07/M04 A3029 RMK A01 T00731039  RH  045%=      5-min Rain = 0
KST1 200240Z 06006KT 07/M04 A3028 RMK A01 T00711042  RH  045%=      5-min Rain = 0
KST1 200245Z 06006KT 06/M04 A3028 RMK A01 T00631044  RH  047%=      5-min Rain = 0
KST1 200250Z 07005KT 07/M04 A3028 RMK A01 T00651043  RH  047%=      5-min Rain = 0
KST1 200255Z 11004KT 05/M05 A3028 RMK A01 T00511053  RH  048%=      5-min Rain = 0
KST1 200300Z 14004KT 04/M05 A3028 RMK A01 T00361049  RH  054%=      5-min Rain = 0
KST1 200305Z 11004KT 04/M05 A3028 RMK A01 T00411047  RH  053%=      5-min Rain = 0
KST1 200310Z 10005KT 04/M05 A3029 RMK A01 T00441048  RH  052%=      5-min Rain = 0
KST1 200315Z 10005KT 04/M05 A3029 RMK A01 T00431047  RH  052%=      5-min Rain = 0
KST1 200320Z 10005KT 05/M05 A3029 RMK A01 T00451046  RH  052%=      5-min Rain = 0
KST1 200325Z 10005KT 04/M05 A3029 RMK A01 T00441047  RH  052%=      5-min Rain = 0
KST1 200330Z 10005KT 05/M05 A303 RMK A01 T00461045  RH  053%=      5-min Rain = 0
KST1 200335Z 09006KT 05/M04 A303 RMK A01 T00481043  RH  052%=      5-min Rain = 0
KST1 200340Z 08006KT 05/M04 A303 RMK A01 T00531044  RH  050%=      5-min Rain = 0
KST1 200345Z 08005KT 05/M04 A303 RMK A01 T00501044  RH  051%=      5-min Rain = 0
KST1 200350Z 08005KT 05/M04 A3031 RMK A01 T00511042  RH  052%=      5-min Rain = 0
KST1 200355Z 08005KT 05/M04 A3031 RMK A01 T00461044  RH  053%=      5-min Rain = 0
KST1 200400Z 09004KT 04/M05 A3032 RMK A01 T00401047  RH  053%=      5-min Rain = 0
KST1 200405Z 10004KT 03/M05 A3032 RMK A01 T00341050  RH  055%=      5-min Rain = 0
KST1 200410Z 11002KT 03/M05 A3032 RMK A01 T00331047  RH  056%=      5-min Rain = 0
KST1 200415Z 13002KT 02/M05 A3032 RMK A01 T00211049  RH  060%=      5-min Rain = 0
KST1 200420Z 14003KT 03/M04 A3032 RMK A01 T00291043  RH  060%=      5-min Rain = 0
KST1 200425Z 17002KT 02/M05 A3033 RMK A01 T00171050  RH  062%=      5-min Rain = 0
KST1 200430Z 14004KT 01/M05 A3032 RMK A01 T00141046  RH  065%=      5-min Rain = 0
KST1 200435Z 13005KT 02/M05 A3031 RMK A01 T00171050  RH  062%=      5-min Rain = 0
KST1 200440Z 14005KT 02/M05 A303 RMK A01 T00191047  RH  062%=      5-min Rain = 0
KST1 200445Z 14005KT 02/M05 A303 RMK A01 T00171053  RH  060%=      5-min Rain = 0
KST1 200450Z 13005KT 01/M06 A3031 RMK A01 T00121057  RH  061%=      5-min Rain = 0
KST1 200455Z 15007KT 01/M06 A3029 RMK A01 T00101057  RH  062%=      5-min Rain = 0
KST1 200500Z 14007KT 02/M05 A303 RMK A01 T00161054  RH  060%=      5-min Rain = 0
KST1 200505Z 12007KT 01/M06 A3029 RMK A01 T00051061  RH  062%=      5-min Rain = 0
KST1 200510Z 14007KT 01/M06 A303 RMK A01 T00051057  RH  064%=      5-min Rain = 0
KST1 200515Z 14008KT 01/M06 A303 RMK A01 T00051059  RH  063%=      5-min Rain = 0
KST1 200520Z 14008KT 00/06 A303 RMK A01 T00000-61  RH  064%=      5-min Rain = 0
KST1 200525Z 14008KT 00/M06 A303 RMK A01 T00011056  RH  066%=      5-min Rain = 0
KST1 200530Z 14008KT 00/M06 A303 RMK A01 T00031056  RH  065%=      5-min Rain = 0
KST1 200535Z 13007KT M00/M06 A3031 RMK A01 T10011059  RH  066%=      5-min Rain = 0
KST1 200540Z 13006KT 00/M06 A3031 RMK A01 T00021055  RH  066%=      5-min Rain = 0
KST1 200545Z 13006KT 01/M05 A3032 RMK A01 T00061053  RH  065%=      5-min Rain = 0
KST1 200550Z 13007KT 01/M05 A3031 RMK A01 T00091049  RH  066%=      5-min Rain = 0
KST1 200555Z 12007KT 01/M05 A3031 RMK A01 T00091051  RH  065%=      5-min Rain = 0

Page generated in 0.0362 seconds.